Lower Paxton, Pennsylvania
Current Conditions -  °F | °C
As of 9:05 PM on Sunday 25 Jan 2015 (Local Time) from KCXY Reporting Station
Light Snow Light Snow  
Wind Chill: 34°   Ceiling: 600
Heat Index: 34°   Visibility: 2.5mi
Dew Point: 32°   Wind: 3mph
Humidity: 92%   Direction: 90°E
Pressure: 29.9"   Gusts: NA
Location:  40.3615°N, 76.7974°W
Report Text: KCXY 260205Z AUTO 09003KT 2 1/2SM -SN BR BKN006 OVC013 01/00 A2990 RMK AO2 P0001 T00110000
Loading
Personal Weather Stations






























Interactive Weather Map New forecast layout! Learn more

10-Day Weather Forecast

Advertisements
Track Severe Weather on mobile